Time;durP1;ratioP1;P1;durP2;ratioP2;P2;SDS_P1;SDS_P2;PMS_P1;PMS_P2;Temp;Humidity;BMP_temperature;BMP_pressure;BME280_temperature;BME280_humidity;BME280_pressure;Samples;Min_cycle;Max_cycle;Signal;HPM_P1;HPM_P2
2023/03/17 00:00:44;;;;;;;0.30;0.30;;;-0.40;99.90;;;;;;5084493;28;20056;-76
2023/03/17 00:03:25;;;;;;;0.20;0.20;;;-0.40;99.90;;;;;;5063572;28;20475;-76
2023/03/17 00:05:54;;;;;;;0.10;0.10;;;0.10;99.90;;;;;;5084443;28;20027;-75
2023/03/17 00:08:26;;;;;;;0.20;0.20;;;-0.30;99.90;;;;;;5082922;28;20020;-76
2023/03/17 00:10:52;;;;;;;0.10;0.10;;;;;;;;;;5084807;28;20071;-78
2023/03/17 00:13:18;;;;;;;0.20;0.20;;;;;;;;;;5066181;28;20036;-75
2023/03/17 00:15:49;;;;;;;0.20;0.20;;;-0.30;99.90;;;;;;5068800;28;20036;-76
2023/03/17 00:18:18;;;;;;;0.20;0.20;;;-0.30;99.90;;;;;;5086721;28;20502;-75
2023/03/17 00:20:45;;;;;;;0.20;0.20;;;0.20;99.90;;;;;;5084673;28;20050;-76
2023/03/17 00:23:18;;;;;;;0.20;0.20;;;-0.40;99.90;;;;;;5086362;28;20028;-76
2023/03/17 00:25:45;;;;;;;0.17;0.17;;;0.60;99.90;;;;;;5084965;28;20635;-76
2023/03/17 00:28:22;;;;;;;0.20;0.20;;;-0.50;99.90;;;;;;5083811;28;20028;-75
2023/03/17 00:30:56;;;;;;;0.20;0.20;;;-0.60;99.90;;;;;;5090852;28;20056;-76
2023/03/17 00:33:25;;;;;;;0.20;0.20;;;-0.60;99.90;;;;;;5091246;28;20270;-76
2023/03/17 00:35:52;;;;;;;0.20;0.20;;;-0.60;99.90;;;;;;5093172;28;20016;-75
2023/03/17 00:38:20;;;;;;;1.13;1.13;;;-0.60;99.90;;;;;;5099811;28;20052;-75
2023/03/17 00:40:50;;;;;;;0.20;0.20;;;-0.60;99.90;;;;;;5101048;28;20029;-75
2023/03/17 00:43:17;;;;;;;0.20;0.20;;;-0.80;99.90;;;;;;5096854;28;20605;-76
2023/03/17 00:45:43;;;;;;;5.00;4.80;;;-0.70;99.90;;;;;;5069583;28;20529;-76
2023/03/17 00:48:17;;;;;;;0.20;0.20;;;-0.40;99.90;;;;;;5083722;28;20671;-76
2023/03/17 00:50:44;;;;;;;;;;;-0.80;99.90;;;;;;5084754;28;20024;-76
2023/03/17 00:53:16;;;;;;;0.20;0.20;;;-0.80;99.90;;;;;;5083446;28;20236;-76
2023/03/17 00:55:43;;;;;;;0.20;0.20;;;-0.90;99.90;;;;;;5082411;28;20066;-75
2023/03/17 00:58:37;;;;;;;0.20;0.20;;;-1.00;99.90;;;;;;5083497;28;20104;-77
2023/03/17 01:01:02;;;;;;;0.20;0.20;;;-0.80;99.90;;;;;;5067789;28;20377;-75
2023/03/17 01:03:31;;;;;;;0.17;0.17;;;-0.90;99.90;;;;;;5063868;28;20370;-74
2023/03/17 01:06:00;;;;;;;0.20;0.20;;;-0.80;99.90;;;;;;5083998;28;20026;-75
2023/03/17 01:08:30;;;;;;;0.10;0.10;;;-0.80;99.90;;;;;;5081570;28;20154;-75
2023/03/17 01:10:57;;;;;;;0.20;0.20;;;-0.90;99.90;;;;;;5082883;28;20284;-76
2023/03/17 01:13:23;;;;;;;0.10;0.10;;;-0.90;99.90;;;;;;5081246;28;20622;-75
2023/03/17 01:15:55;;;;;;;0.20;0.20;;;1.40;99.90;;;;;;5084656;28;20036;-76
2023/03/17 01:18:22;;;;;;;0.10;0.10;;;-1.00;99.90;;;;;;5089570;28;20525;-75
2023/03/17 01:20:48;;;;;;;0.10;0.10;;;-0.90;99.90;;;;;;5086997;28;20145;-75
2023/03/17 01:23:15;;;;;;;0.20;0.20;;;-0.90;99.90;;;;;;5067334;28;20424;-75
2023/03/17 01:25:42;;;;;;;0.20;0.20;;;-0.90;99.90;;;;;;5051493;28;20568;-76
2023/03/17 01:28:16;;;;;;;0.20;0.20;;;-1.00;99.90;;;;;;5089260;28;20032;-76
2023/03/17 01:30:43;;;;;;;0.20;0.20;;;;;;;;;;5084090;28;20054;-76
2023/03/17 01:33:11;;;;;;;0.20;0.20;;;-1.00;99.90;;;;;;5087664;28;20031;-75
2023/03/17 01:35:38;;;;;;;0.20;0.20;;;;;;;;;;5088631;28;20204;-75
2023/03/17 01:38:07;;;;;;;0.10;0.10;;;-0.90;99.90;;;;;;5091053;28;20055;-76
2023/03/17 01:40:42;;;;;;;0.20;0.20;;;-0.90;99.90;;;;;;5092606;28;20020;-76
2023/03/17 01:43:28;;;;;;;0.20;0.20;;;-1.00;99.90;;;;;;5092689;28;20024;-76
2023/03/17 01:46:28;;;;;;;0.10;0.10;;;-1.00;99.90;;;;;;5091679;28;20024;-75
2023/03/17 01:49:18;;;;;;;0.20;0.20;;;-0.40;99.90;;;;;;5084900;28;20024;-75
2023/03/17 01:51:52;;;;;;;0.20;0.20;;;-3.50;99.90;;;;;;5085218;28;20122;-75
2023/03/17 01:54:40;;;;;;;0.20;0.20;;;-1.10;99.90;;;;;;5083511;28;20312;-75
2023/03/17 01:57:13;;;;;;;0.20;0.20;;;-1.10;99.90;;;;;;5085619;28;20016;-76
2023/03/17 01:59:49;;;;;;;0.20;0.20;;;-0.90;99.90;;;;;;5086044;28;20032;-75
2023/03/17 02:02:21;;;;;;;0.20;0.20;;;-1.10;99.90;;;;;;5068127;28;20043;-75
2023/03/17 02:04:55;;;;;;;0.20;0.20;;;-1.10;99.90;;;;;;5088146;28;20016;-76
2023/03/17 02:07:22;;;;;;;;;;;-1.20;99.90;;;;;;5070490;28;20379;-76
2023/03/17 02:09:48;;;;;;;0.20;0.20;;;-1.20;99.90;;;;;;5093545;28;19908;-76
2023/03/17 02:12:17;;;;;;;0.20;0.20;;;-1.10;99.90;;;;;;5093155;28;20028;-75
2023/03/17 02:14:43;;;;;;;0.10;0.10;;;;;;;;;;5091492;28;20247;-76
2023/03/17 02:17:09;;;;;;;0.10;0.10;;;-1.20;99.90;;;;;;5067789;28;20037;-76
2023/03/17 02:19:35;;;;;;;0.13;0.13;;;;;;;;;;5087993;28;20023;-76
2023/03/17 02:22:02;;;;;;;0.20;0.20;;;;;;;;;;5085631;28;20024;-76
2023/03/17 02:24:40;;;;;;;0.20;0.20;;;-1.20;99.90;;;;;;5084924;28;20027;-75
2023/03/17 02:27:30;;;;;;;0.10;0.10;;;-1.20;99.90;;;;;;5067870;28;20225;-76
2023/03/17 02:29:56;;;;;;;0.20;0.20;;;;;;;;;;5085670;28;20035;-76
2023/03/17 02:32:23;;;;;;;0.20;0.20;;;-1.30;99.90;;;;;;5084764;28;20040;-76
2023/03/17 02:34:50;;;;;;;0.20;0.20;;;-1.40;99.90;;;;;;5085350;28;20434;-76
2023/03/17 02:37:18;;;;;;;0.17;0.17;;;-1.40;99.90;;;;;;5085472;28;20252;-76
2023/03/17 02:39:45;;;;;;;0.20;0.20;;;;;;;;;;5085318;28;20036;-76
2023/03/17 02:42:12;;;;;;;0.20;0.20;;;-1.40;99.90;;;;;;5087199;28;20028;-76
2023/03/17 02:44:39;;;;;;;0.10;0.10;;;-0.60;99.90;;;;;;5068835;28;20223;-76
2023/03/17 02:47:07;;;;;;;0.20;0.20;;;-1.40;99.90;;;;;;5086217;28;20035;-76
2023/03/17 02:49:34;;;;;;;0.20;0.20;;;-1.40;99.90;;;;;;5086047;28;20028;-76
2023/03/17 02:52:01;;;;;;;0.20;0.20;;;-1.50;99.90;;;;;;5073794;28;20032;-76
2023/03/17 02:54:27;;;;;;;0.20;0.20;;;;;;;;;;5091135;28;20315;-77
2023/03/17 02:56:53;;;;;;;0.10;0.10;;;-1.50;99.90;;;;;;5090939;28;20032;-76
2023/03/17 02:59:19;;;;;;;0.20;0.20;;;-0.10;99.90;;;;;;5087819;28;20045;-75
2023/03/17 03:01:47;;;;;;;0.13;0.13;;;-1.60;99.90;;;;;;5066556;28;20438;-76
2023/03/17 03:04:12;;;;;;;0.20;0.20;;;-1.60;99.90;;;;;;5082476;28;20027;-76
2023/03/17 03:06:38;;;;;;;0.10;0.10;;;-1.50;99.90;;;;;;5083260;28;20036;-76
2023/03/17 03:09:05;;;;;;;0.10;0.10;;;;;;;;;;5082437;28;20099;-77
2023/03/17 03:11:31;;;;;;;0.47;0.47;;;-1.60;99.90;;;;;;5064565;28;20045;-76
2023/03/17 03:13:56;;;;;;;0.10;0.10;;;-1.50;99.90;;;;;;5082542;28;20338;-76
2023/03/17 03:16:22;;;;;;;0.10;0.10;;;;;;;;;;5082677;28;20372;-76
2023/03/17 03:18:51;;;;;;;0.20;0.20;;;-1.50;99.90;;;;;;5084359;28;20112;-77
2023/03/17 03:21:17;;;;;;;0.20;0.20;;;;;;;;;;5084300;28;20117;-76
2023/03/17 03:23:46;;;;;;;0.20;0.20;;;-1.50;99.90;;;;;;5085190;28;20317;-76
2023/03/17 03:26:11;;;;;;;0.10;0.10;;;-1.50;99.90;;;;;;5084505;28;20078;-75
2023/03/17 03:28:38;;;;;;;0.20;0.20;;;-1.50;99.90;;;;;;5067613;28;20484;-76
2023/03/17 03:31:04;;;;;;;0.10;0.10;;;-1.60;99.90;;;;;;5084949;28;20031;-76
2023/03/17 03:33:30;;;;;;;0.17;0.17;;;-1.50;99.90;;;;;;5081073;28;20012;-76
2023/03/17 03:35:56;;;;;;;0.20;0.20;;;-1.70;99.90;;;;;;5081252;28;20251;-77
2023/03/17 03:38:22;;;;;;;0.20;0.20;;;-1.70;99.90;;;;;;5062588;28;20036;-76
2023/03/17 03:40:48;;;;;;;0.20;0.20;;;-1.70;99.90;;;;;;5062698;28;20043;-76
2023/03/17 03:43:14;;;;;;;2.47;2.30;;;-1.60;99.90;;;;;;5081780;28;20300;-76
2023/03/17 03:45:40;;;;;;;0.20;0.20;;;-1.70;99.90;;;;;;5081371;28;20679;-76
2023/03/17 03:48:06;;;;;;;0.20;0.20;;;-1.70;99.90;;;;;;5081901;28;20020;-77
2023/03/17 03:50:32;;;;;;;0.10;0.10;;;-1.90;99.90;;;;;;5082428;28;20324;-76
2023/03/17 03:52:58;;;;;;;0.10;0.10;;;-1.70;99.90;;;;;;5047498;28;20248;-76
2023/03/17 03:55:24;;;;;;;0.20;0.20;;;;;;;;;;5064811;28;20028;-77
2023/03/17 03:57:51;;;;;;;0.20;0.20;;;-1.80;99.90;;;;;;5063487;28;20028;-76
2023/03/17 04:00:19;;;;;;;0.20;0.20;;;-1.90;99.90;;;;;;5080581;28;20584;-75
2023/03/17 04:02:45;;;;;;;0.10;0.10;;;-1.40;99.90;;;;;;5082823;28;20012;-76
2023/03/17 04:05:14;;;;;;;0.20;0.20;;;-1.90;99.90;;;;;;5063465;28;20248;-74
2023/03/17 04:07:41;;;;;;;0.10;0.10;;;-1.60;99.90;;;;;;5062697;28;20070;-76
2023/03/17 04:10:10;;;;;;;0.10;0.10;;;-1.50;99.90;;;;;;5081130;28;20044;-76
2023/03/17 04:12:37;;;;;;;0.17;0.17;;;-2.00;99.90;;;;;;5081203;28;20216;-76
2023/03/17 04:15:07;;;;;;;0.37;0.37;;;-2.00;99.90;;;;;;5064012;28;20028;-76
2023/03/17 04:17:34;;;;;;;0.20;0.20;;;-2.00;99.90;;;;;;5083581;28;20104;-76
2023/03/17 04:20:00;;;;;;;0.20;0.20;;;-2.00;99.90;;;;;;5082466;28;20023;-76
2023/03/17 04:22:26;;;;;;;0.10;0.10;;;-2.00;99.90;;;;;;5081393;28;20012;-76
2023/03/17 04:24:52;;;;;;;0.10;0.10;;;;;;;;;;5081028;28;20028;-76
2023/03/17 04:27:18;;;;;;;0.40;0.40;;;;;;;;;;5081056;28;20491;-76
2023/03/17 04:29:44;;;;;;;0.20;0.20;;;-2.10;99.90;;;;;;5081127;28;20020;-76
2023/03/17 04:32:12;;;;;;;0.60;0.60;;;-2.10;99.90;;;;;;5080434;28;20350;-76
2023/03/17 04:34:40;;;;;;;0.20;0.20;;;-2.20;99.90;;;;;;5079996;28;20467;-76
2023/03/17 04:37:07;;;;;;;0.13;0.13;;;-2.20;99.90;;;;;;5080421;28;20105;-76
2023/03/17 04:39:36;;;;;;;0.10;0.10;;;-2.40;99.90;;;;;;5081546;28;20014;-76
2023/03/17 04:42:02;;;;;;;0.20;0.20;;;-2.20;99.90;;;;;;5082211;28;20024;-76
2023/03/17 04:44:28;;;;;;;0.10;0.10;;;-2.30;99.90;;;;;;5081203;28;20101;-76
2023/03/17 04:46:54;;;;;;;0.20;0.20;;;-2.30;99.90;;;;;;5080735;28;20502;-76
2023/03/17 04:49:20;;;;;;;0.10;0.10;;;;;;;;;;5080930;28;20032;-76
2023/03/17 04:51:46;;;;;;;0.10;0.10;;;-2.30;99.90;;;;;;5081275;28;20182;-76
2023/03/17 04:54:12;;;;;;;0.20;0.20;;;;;;;;;;5080449;28;20498;-76
2023/03/17 04:56:38;;;;;;;0.20;0.20;;;-2.30;99.90;;;;;;5079963;28;20054;-76
2023/03/17 04:59:04;;;;;;;0.20;0.20;;;-2.40;99.90;;;;;;5080858;28;20021;-76
2023/03/17 05:01:30;;;;;;;0.20;0.20;;;;;;;;;;5080630;28;20028;-76
2023/03/17 05:03:56;;;;;;;29.53;14.20;;;;;;;;;;5063405;28;20341;-76
2023/03/17 05:06:22;;;;;;;0.20;0.20;;;;;;;;;;5063233;28;20112;-76
2023/03/17 05:08:48;;;;;;;0.10;0.10;;;-2.30;99.90;;;;;;5080476;28;20021;-76
2023/03/17 05:11:15;;;;;;;0.20;0.20;;;;;;;;;;5082786;28;20093;-76
2023/03/17 05:13:41;;;;;;;0.17;0.17;;;;;;;;;;5086262;28;20101;-76
2023/03/17 05:16:08;;;;;;;0.10;0.10;;;-2.50;99.90;;;;;;5084955;28;20206;-76
2023/03/17 05:18:34;;;;;;;0.10;0.10;;;-2.10;99.90;;;;;;5067349;28;20491;-76
2023/03/17 05:21:00;;;;;;;0.20;0.20;;;-2.20;99.90;;;;;;5085595;28;20478;-76
2023/03/17 05:23:26;;;;;;;0.20;0.20;;;;;;;;;;5086286;28;20035;-78
2023/03/17 05:25:52;;;;;;;0.13;0.13;;;-2.30;99.90;;;;;;5085903;28;20456;-76
2023/03/17 05:28:19;;;;;;;0.20;0.20;;;-1.80;99.90;;;;;;5088432;28;20195;-76
2023/03/17 05:30:47;;;;;;;0.20;0.20;;;-2.30;99.90;;;;;;5088128;28;20036;-77
2023/03/17 05:33:14;;;;;;;0.20;0.20;;;-2.30;99.90;;;;;;5068519;28;20202;-76
2023/03/17 05:35:40;;;;;;;0.20;0.20;;;-2.20;99.90;;;;;;5087001;28;20058;-76
2023/03/17 05:38:07;;;;;;;0.20;0.20;;;;;;;;;;5068699;28;20058;-76
2023/03/17 05:40:34;;;;;;;12.37;11.13;;;;;;;;;;5088748;28;20024;-78
2023/03/17 05:43:00;;;;;;;0.20;0.20;;;;;;;;;;5071973;28;20043;-76
2023/03/17 05:45:27;;;;;;;0.10;0.10;;;-2.80;99.90;;;;;;5092405;28;20016;-76
2023/03/17 05:47:53;;;;;;;0.20;0.20;;;;;;;;;;5085551;28;20032;-76
2023/03/17 05:50:19;;;;;;;0.10;0.10;;;-2.00;99.90;;;;;;5084407;28;20024;-76
2023/03/17 05:52:46;;;;;;;0.10;0.10;;;-1.90;99.90;;;;;;5067985;28;20651;-77
2023/03/17 05:55:12;;;;;;;0.10;0.10;;;-1.90;99.90;;;;;;5087037;28;20180;-76
2023/03/17 05:57:38;;;;;;;0.20;0.20;;;-1.80;99.90;;;;;;5085361;28;20056;-76
2023/03/17 06:00:04;;;;;;;0.10;0.10;;;-1.80;99.90;;;;;;5066419;28;20028;-77
2023/03/17 06:02:34;;;;;;;0.10;0.10;;;-1.70;99.90;;;;;;5088238;28;20036;-76
2023/03/17 06:05:02;;;;;;;0.10;0.10;;;-1.70;99.90;;;;;;5093146;28;20031;-76
2023/03/17 06:07:28;;;;;;;0.20;0.20;;;-1.50;99.90;;;;;;5091782;28;20023;-76
2023/03/17 06:09:54;;;;;;;0.20;0.20;;;-1.50;99.90;;;;;;5094997;28;20110;-76
2023/03/17 06:12:20;;;;;;;0.20;0.20;;;-1.40;99.90;;;;;;5093650;28;20020;-76
2023/03/17 06:14:46;;;;;;;0.20;0.20;;;-1.30;99.90;;;;;;5075681;28;20020;-76
2023/03/17 06:17:12;;;;;;;0.20;0.20;;;-1.20;99.90;;;;;;5086604;28;20475;-76
2023/03/17 06:19:38;;;;;;;0.27;0.27;;;-1.10;99.90;;;;;;5066269;28;20020;-77
2023/03/17 06:22:04;;;;;;;0.20;0.20;;;-1.00;99.90;;;;;;5083276;28;20028;-76
2023/03/17 06:24:30;;;;;;;5.57;5.10;;;-0.90;99.90;;;;;;5082565;28;20583;-77
2023/03/17 06:26:56;;;;;;;2.20;2.20;;;-0.90;99.90;;;;;;5086614;28;20055;-76
2023/03/17 06:29:23;;;;;;;0.20;0.20;;;-0.80;99.90;;;;;;5068344;28;20403;-77
2023/03/17 06:31:51;;;;;;;2.83;2.73;;;-0.70;99.90;;;;;;5090053;28;20187;-77
2023/03/17 06:34:20;;;;;;;0.20;0.20;;;-0.70;99.90;;;;;;5073642;28;20439;-77
2023/03/17 06:36:48;;;;;;;0.20;0.20;;;-0.50;99.90;;;;;;5090891;28;20082;-76
2023/03/17 06:39:17;;;;;;;0.20;0.20;;;-0.40;99.90;;;;;;5073975;28;20104;-77
2023/03/17 06:41:43;;;;;;;0.20;0.20;;;-0.20;99.90;;;;;;5091142;28;20050;-76
2023/03/17 06:44:09;;;;;;;0.20;0.20;;;;;;;;;;5072335;28;20564;-76
2023/03/17 06:46:35;;;;;;;0.20;0.20;;;-0.10;99.90;;;;;;5087072;28;20027;-77
2023/03/17 06:49:02;;;;;;;0.20;0.20;;;0.00;99.90;;;;;;5080575;28;20043;-76
2023/03/17 06:51:28;;;;;;;0.20;0.20;;;0.10;99.90;;;;;;5102212;28;20032;-76
2023/03/17 06:53:55;;;;;;;0.20;0.20;;;;;;;;;;5098510;28;20343;-76
2023/03/17 06:56:20;;;;;;;0.20;0.20;;;0.50;99.90;;;;;;5096374;28;20027;-77
2023/03/17 06:58:47;;;;;;;0.20;0.20;;;0.40;99.90;;;;;;5103011;28;20012;-77
2023/03/17 07:01:13;;;;;;;0.20;0.20;;;0.60;99.90;;;;;;5103712;28;20023;-76
2023/03/17 07:03:40;;;;;;;0.30;0.30;;;0.70;99.90;;;;;;5090600;28;20324;-77
2023/03/17 07:06:07;;;;;;;0.20;0.20;;;0.80;99.90;;;;;;5087049;28;20073;-76
2023/03/17 07:08:33;;;;;;;0.20;0.20;;;1.00;99.90;;;;;;5088837;28;20324;-77
2023/03/17 07:11:00;;;;;;;0.10;0.10;;;;;;;;;;5088846;28;20020;-77
2023/03/17 07:13:27;;;;;;;0.20;0.20;;;1.20;99.90;;;;;;5090479;28;20024;-77
2023/03/17 07:15:54;;;;;;;0.20;0.20;;;1.20;99.90;;;;;;5070471;28;20021;-76
2023/03/17 07:18:20;;;;;;;0.10;0.10;;;1.40;99.90;;;;;;5087337;28;20308;-76
2023/03/17 07:20:46;;;;;;;0.20;0.20;;;1.40;99.90;;;;;;5090971;28;20020;-76
2023/03/17 07:23:20;;;;;;;0.20;0.20;;;1.60;99.90;;;;;;5085515;28;20064;-76
2023/03/17 07:25:46;;;;;;;0.10;0.10;;;1.70;99.90;;;;;;5082940;28;20012;-76
2023/03/17 07:28:12;;;;;;;1.15;1.15;;;1.70;99.90;;;;;;5083261;28;20104;-76
2023/03/17 07:30:39;;;;;;;0.30;0.30;;;-0.70;99.90;;;;;;5065691;28;20036;-76
2023/03/17 07:33:05;;;;;;;0.25;0.25;;;2.00;99.90;;;;;;5082956;28;20021;-76
2023/03/17 07:35:32;;;;;;;0.40;0.40;;;2.10;99.90;;;;;;5083015;28;20031;-76
2023/03/17 07:37:58;;;;;;;0.13;0.13;;;2.10;99.90;;;;;;5064569;28;20262;-76
2023/03/17 07:40:25;;;;;;;0.28;0.28;;;2.10;99.90;;;;;;5087764;28;20080;-76
2023/03/17 07:42:51;;;;;;;0.10;0.10;;;2.20;99.90;;;;;;5083789;28;20518;-76
2023/03/17 07:45:17;;;;;;;2.80;2.72;;;2.40;99.90;;;;;;5084373;28;20215;-76
2023/03/17 07:47:42;;;;;;;0.13;0.13;;;3.00;99.90;;;;;;5084539;28;20186;-76
2023/03/17 07:50:09;;;;;;;0.98;0.95;;;2.50;99.90;;;;;;5084185;28;20012;-76
2023/03/17 07:52:35;;;;;;;0.30;0.30;;;2.70;99.90;;;;;;5084884;28;20222;-76
2023/03/17 07:55:01;;;;;;;0.15;0.15;;;2.50;99.90;;;;;;5082972;28;20702;-76
2023/03/17 07:57:27;;;;;;;0.20;0.20;;;2.60;99.90;;;;;;5083118;28;20028;-76
2023/03/17 07:59:53;;;;;;;0.20;0.20;;;2.80;99.90;;;;;;5082566;28;20262;-76
2023/03/17 08:02:19;;;;;;;0.10;0.10;;;2.90;99.90;;;;;;5082013;28;20730;-76
2023/03/17 08:04:46;;;;;;;0.25;0.25;;;3.00;99.90;;;;;;5088989;28;20036;-76
2023/03/17 08:07:14;;;;;;;0.10;0.10;;;4.40;99.90;;;;;;5090100;28;20035;-77
2023/03/17 08:09:40;;;;;;;0.10;0.10;;;3.20;99.90;;;;;;5070968;28;20093;-76
2023/03/17 08:12:08;;;;;;;0.13;0.13;;;3.10;99.90;;;;;;5094002;28;20031;-76
2023/03/17 08:14:34;;;;;;;0.10;0.10;;;3.30;99.90;;;;;;5094913;28;20059;-76
2023/03/17 08:17:01;;;;;;;0.10;0.10;;;3.80;99.90;;;;;;5093320;28;20028;-76
2023/03/17 08:19:27;;;;;;;0.10;0.10;;;3.50;99.90;;;;;;5083175;28;20024;-76
2023/03/17 08:21:52;;;;;;;0.20;0.20;;;3.60;99.90;;;;;;5085625;28;20493;-77
2023/03/17 08:24:19;;;;;;;0.10;0.10;;;3.80;99.90;;;;;;5089088;28;20055;-77
2023/03/17 08:26:48;;;;;;;5.68;5.25;;;3.70;99.90;;;;;;5083117;28;20024;-76
2023/03/17 08:29:15;;;;;;;0.10;0.10;;;3.90;99.90;;;;;;5082835;28;20028;-76
2023/03/17 08:31:43;;;;;;;0.10;0.10;;;4.00;99.90;;;;;;5082054;28;20039;-76
2023/03/17 08:34:12;;;;;;;0.10;0.10;;;4.20;99.90;;;;;;5093469;28;20028;-76
2023/03/17 08:36:38;;;;;;;0.10;0.10;;;4.10;97.80;;;;;;5071608;28;20627;-76
2023/03/17 08:39:06;;;;;;;0.17;0.17;;;4.20;99.50;;;;;;5072852;28;20077;-76
2023/03/17 08:41:32;;;;;;;0.10;0.10;;;4.40;99.20;;;;;;5074551;28;20016;-76
2023/03/17 08:44:00;;;;;;;0.10;0.10;;;4.50;97.80;;;;;;5093961;28;20039;-76
2023/03/17 08:46:31;;;;;;;0.00;0.00;;;4.80;97.30;;;;;;5092732;28;20012;-76
2023/03/17 08:48:58;;;;;;;0.10;0.10;;;4.80;95.20;;;;;;5092327;28;20024;-76
2023/03/17 08:51:28;;;;;;;3.58;3.45;;;5.20;94.50;;;;;;5076846;28;20059;-77
2023/03/17 08:53:54;;;;;;;0.10;0.10;;;7.70;94.10;;;;;;5097156;28;20036;-76
2023/03/17 08:56:21;;;;;;;0.10;0.10;;;4.90;94.30;;;;;;5095843;28;20017;-76
2023/03/17 08:58:47;;;;;;;0.10;0.10;;;5.10;94.00;;;;;;5059632;28;20032;-76
2023/03/17 09:01:15;;;;;;;0.10;0.10;;;5.30;91.80;;;;;;5081555;28;20031;-76
2023/03/17 09:03:42;;;;;;;0.10;0.10;;;5.50;90.60;;;;;;5082302;28;20017;-76
2023/03/17 09:06:10;;;;;;;0.00;0.00;;;5.50;89.20;;;;;;5083026;28;20048;-76
2023/03/17 09:08:38;;;;;;;0.00;0.00;;;5.80;90.70;;;;;;5083789;28;20051;-76
2023/03/17 09:11:05;;;;;;;0.00;0.00;;;5.80;87.00;;;;;;5083606;28;20036;-76
2023/03/17 09:13:36;;;;;;;0.10;0.10;;;5.90;85.70;;;;;;5085582;28;20154;-76
2023/03/17 09:16:02;;;;;;;0.00;0.00;;;6.00;84.00;;;;;;5083683;28;20031;-76
2023/03/17 09:18:30;;;;;;;0.00;0.00;;;6.10;82.40;;;;;;5085141;28;20513;-76
2023/03/17 09:20:56;;;;;;;0.00;0.00;;;6.30;82.60;;;;;;5089125;28;20012;-77
2023/03/17 09:23:22;;;;;;;0.00;0.00;;;6.50;83.00;;;;;;5090906;28;20115;-76
2023/03/17 09:25:49;;;;;;;0.00;0.00;;;6.60;81.00;;;;;;5092372;28;20051;-76
2023/03/17 09:28:16;;;;;;;0.10;0.10;;;6.90;82.00;;;;;;5090026;28;20008;-75
2023/03/17 09:30:44;;;;;;;0.00;0.00;;;6.90;77.30;;;;;;5082649;28;20025;-76
2023/03/17 09:33:11;;;;;;;7.80;7.50;;;7.00;77.70;;;;;;5081282;28;20032;-76
2023/03/17 09:35:39;;;;;;;0.10;0.10;;;7.10;78.10;;;;;;5080312;28;20613;-76
2023/03/17 09:38:06;;;;;;;1.85;1.75;;;7.00;79.40;;;;;;5081476;28;20131;-76
2023/03/17 09:41:07;;;;;;;1.45;1.45;;;7.20;78.20;;;;;;5063819;28;20577;-76
2023/03/17 09:44:04;;;;;;;13.02;12.38;;;7.30;76.60;;;;;;5081123;28;20059;-76
2023/03/17 09:46:49;;;;;;;2.38;2.28;;;7.30;76.40;;;;;;5064305;28;20516;-76
2023/03/17 09:49:50;;;;;;;0.00;0.00;;;7.50;79.00;;;;;;5085687;28;20467;-78
2023/03/17 09:52:37;;;;;;;0.10;0.10;;;7.50;76.90;;;;;;5076531;28;20043;-76
2023/03/17 09:55:07;;;;;;;0.03;0.03;;;7.50;77.50;;;;;;5097232;28;20056;-76
2023/03/17 09:57:40;;;;;;;0.00;0.00;;;7.50;76.40;;;;;;5078823;28;20020;-77
2023/03/17 10:00:28;;;;;;;0.10;0.10;;;7.90;75.50;;;;;;5080888;28;20087;-76
2023/03/17 10:02:56;;;;;;;0.00;0.00;;;8.10;76.90;;;;;;5084118;28;20038;-76
2023/03/17 10:05:25;;;;;;;0.13;0.13;;;8.20;73.70;;;;;;5095859;28;20020;-76
2023/03/17 10:08:04;;;;;;;0.05;0.05;;;7.90;73.40;;;;;;5073895;28;20024;-75
2023/03/17 10:10:48;;;;;;;0.10;0.10;;;8.20;70.80;;;;;;5091884;28;20187;-77
2023/03/17 10:13:28;;;;;;;0.10;0.10;;;8.10;70.60;;;;;;5088474;28;20103;-76
2023/03/17 10:16:23;;;;;;;0.10;0.10;;;8.40;72.00;;;;;;5091857;28;20115;-76
2023/03/17 10:18:56;;;;;;;4.05;3.85;;;8.60;69.70;;;;;;5093092;28;20320;-77
2023/03/17 10:21:28;;;;;;;0.05;0.05;;;8.60;69.20;;;;;;5093538;28;20040;-76
2023/03/17 10:23:56;;;;;;;0.10;0.10;;;8.70;68.90;;;;;;5088581;28;20024;-76
2023/03/17 10:26:49;;;;;;;0.05;0.05;;;8.70;68.60;;;;;;5075918;28;20020;-76
2023/03/17 10:29:24;;;;;;;0.75;0.75;;;8.80;68.10;;;;;;5096481;28;20081;-76
2023/03/17 10:31:52;;;;;;;0.10;0.10;;;9.00;67.10;;;;;;5075287;28;20714;-76
2023/03/17 10:34:26;;;;;;;0.17;0.17;;;9.10;65.40;;;;;;5071216;28;20122;-75
2023/03/17 10:37:04;;;;;;;0.10;0.10;;;9.10;63.50;;;;;;5082434;28;20039;-76
2023/03/17 10:39:30;;;;;;;17.40;9.23;;;9.30;63.00;;;;;;5083937;28;20035;-76
2023/03/17 10:41:58;;;;;;;0.32;0.32;;;6.60;63.70;;;;;;5083846;28;20107;-76
2023/03/17 10:44:47;;;;;;;0.00;0.00;;;9.60;64.00;;;;;;5083327;28;20111;-76
2023/03/17 10:47:24;;;;;;;0.03;0.03;;;10.10;63.20;;;;;;5083930;28;20032;-76
2023/03/17 10:49:51;;;;;;;0.10;0.10;;;10.10;62.40;;;;;;5084209;28;20024;-76
2023/03/17 10:52:29;;;;;;;0.10;0.10;;;10.60;63.30;;;;;;5083299;28;20036;-76
2023/03/17 10:55:04;;;;;;;0.10;0.10;;;10.70;63.50;;;;;;5083214;28;20265;-76
2023/03/17 10:57:30;;;;;;;0.10;0.10;;;10.90;62.10;;;;;;5081329;28;20647;-77
2023/03/17 10:59:58;;;;;;;0.10;0.10;;;10.70;58.50;;;;;;5082082;28;20280;-76
2023/03/17 11:02:43;;;;;;;0.10;0.10;;;10.30;60.60;;;;;;5082426;28;20316;-76
2023/03/17 11:05:28;;;;;;;0.10;0.10;;;10.90;59.40;;;;;;5082570;28;20020;-76
2023/03/17 11:08:15;;;;;;;0.20;0.20;;;11.00;59.50;;;;;;5081120;28;20024;-76
2023/03/17 11:10:41;;;;;;;0.10;0.10;;;11.00;59.10;;;;;;5081557;28;20030;-77
2023/03/17 11:13:09;;;;;;;0.10;0.10;;;11.30;59.80;;;;;;5080576;28;20024;-76
2023/03/17 11:15:42;;;;;;;0.10;0.10;;;11.40;58.70;;;;;;5081230;28;20020;-75
2023/03/17 11:18:21;;;;;;;0.20;0.20;;;11.50;60.00;;;;;;5081156;28;20020;-77
2023/03/17 11:21:06;;;;;;;0.20;0.20;;;11.80;59.90;;;;;;5078962;28;20228;-76
2023/03/17 11:24:10;;;;;;;0.10;0.10;;;12.10;55.80;;;;;;5079488;28;20024;-74
2023/03/17 11:26:55;;;;;;;0.20;0.20;;;12.40;56.30;;;;;;5018955;28;20067;-77
2023/03/17 11:29:23;;;;;;;0.10;0.10;;;12.80;58.30;;;;;;5036053;28;20025;-77
2023/03/17 11:32:17;;;;;;;0.20;0.20;;;12.60;58.20;;;;;;5019808;28;20231;-76
2023/03/17 11:34:51;;;;;;;;;;;13.60;57.10;;;;;;5019530;28;20021;-78
2023/03/17 11:37:46;;;;;;;0.20;0.20;;;12.10;56.80;;;;;;5035357;28;19919;-75
2023/03/17 11:40:23;;;;;;;0.20;0.20;;;12.80;57.10;;;;;;4976213;28;20344;-77
2023/03/17 11:43:22;;;;;;;0.10;0.10;;;13.20;57.30;;;;;;4976173;28;20412;-77
2023/03/17 11:45:55;;;;;;;0.20;0.20;;;13.10;56.80;;;;;;4973595;28;20061;-76
2023/03/17 11:48:29;;;;;;;0.43;0.43;;;13.50;54.20;;;;;;4959697;28;20022;-77
2023/03/17 11:51:20;;;;;;;6.43;5.97;;;13.70;54.00;;;;;;4959492;28;20034;-76
2023/03/17 11:53:55;;;;;;;0.17;0.17;;;13.90;53.60;;;;;;4975989;28;20166;-77
2023/03/17 11:56:54;;;;;;;0.20;0.20;;;13.80;55.00;;;;;;4959681;28;20035;-79
2023/03/17 11:59:41;;;;;;;0.10;0.10;;;13.90;53.50;;;;;;4902215;29;20039;-76
2023/03/17 12:02:18;;;;;;;0.10;0.10;;;14.40;54.70;;;;;;4918837;29;20024;-75
2023/03/17 12:05:14;;;;;;;0.10;0.10;;;14.60;55.00;;;;;;4918544;29;20063;-76
2023/03/17 12:07:58;;;;;;;0.10;0.10;;;14.70;54.80;;;;;;4918867;29;20032;-75
2023/03/17 12:10:24;;;;;;;;;;;15.70;56.10;;;;;;4902737;29;20643;-76
2023/03/17 12:13:25;;;;;;;0.10;0.10;;;13.30;56.10;;;;;;4917884;29;19915;-79
2023/03/17 12:16:03;;;;;;;0.82;0.82;;;15.10;54.40;;;;;;4825315;29;20062;-78
2023/03/17 12:19:13;;;;;;;0.20;0.20;;;16.10;56.40;;;;;;4899236;29;20265;-76
2023/03/17 12:22:14;;;;;;;0.20;0.20;;;15.00;53.90;;;;;;4861265;29;20032;-75
2023/03/17 12:24:45;;;;;;;0.10;0.10;;;15.10;52.40;;;;;;4858886;29;20037;-76
2023/03/17 12:27:23;;;;;;;0.15;0.15;;;15.10;55.00;;;;;;4846284;29;20567;-76
2023/03/17 12:29:59;;;;;;;0.13;0.13;;;17.00;55.50;;;;;;4861394;29;20561;-76
2023/03/17 12:32:43;;;;;;;0.20;0.20;;;15.40;52.40;;;;;;4860717;29;20295;-77
2023/03/17 12:35:25;;;;;;;;;;;15.40;53.20;;;;;;4855831;29;20088;-77
2023/03/17 12:37:52;;;;;;;0.10;0.10;;;15.60;53.00;;;;;;4898458;29;19919;-77
2023/03/17 12:40:35;;;;;;;0.15;0.15;;;15.80;51.30;;;;;;4899403;29;20051;-76
2023/03/17 12:43:33;;;;;;;0.10;0.10;;;13.20;51.80;;;;;;4883385;29;20368;-76
2023/03/17 12:46:04;;;;;;;0.20;0.20;;;15.50;53.80;;;;;;4883373;29;20095;-77
2023/03/17 12:48:56;;;;;;;0.10;0.10;;;15.30;51.40;;;;;;4882567;29;20522;-76
2023/03/17 12:51:40;;;;;;;0.10;0.10;;;15.30;51.00;;;;;;4914737;28;20033;-79
2023/03/17 12:54:25;;;;;;;0.10;0.10;;;15.30;51.80;;;;;;5014475;28;20544;-76
2023/03/17 12:56:58;;;;;;;0.10;0.10;;;15.80;52.40;;;;;;5077147;28;20570;-77
2023/03/17 12:59:25;;;;;;;0.10;0.10;;;16.10;51.10;;;;;;5058709;28;20031;-77
2023/03/17 13:02:18;;;;;;;0.10;0.10;;;15.90;51.90;;;;;;5077093;28;20030;-77
2023/03/17 13:04:56;;;;;;;0.10;0.10;;;15.70;52.50;;;;;;5065845;28;20051;-76
2023/03/17 13:07:25;;;;;;;0.10;0.10;;;16.00;52.10;;;;;;5059081;28;20016;-78
2023/03/17 13:09:54;;;;;;;0.17;0.17;;;16.40;50.90;;;;;;5076843;28;20358;-76
2023/03/17 13:12:55;;;;;;;1.38;1.27;;;16.30;51.40;;;;;;5077015;28;20495;-77
2023/03/17 13:15:25;;;;;;;0.10;0.10;;;16.40;52.30;;;;;;5075768;28;20205;-77
2023/03/17 13:18:15;;;;;;;0.10;0.10;;;17.40;52.80;;;;;;5076835;28;20081;-78
2023/03/17 13:20:56;;;;;;;0.10;0.10;;;16.90;50.80;;;;;;5077152;28;20020;-76